sensor_id;sensor_type;location;lat;lon;timestamp;temperature;humidity
28175;SHT30;59417;44.788;10.334;2022-10-14T00:02:02;16.31;73.01
28175;SHT30;59417;44.788;10.334;2022-10-14T00:04:28;16.21;73.58
28175;SHT30;59417;44.788;10.334;2022-10-14T00:06:54;16.25;73.24
28175;SHT30;59417;44.788;10.334;2022-10-14T00:09:20;16.33;72.98
28175;SHT30;59417;44.788;10.334;2022-10-14T00:11:45;16.40;72.74
28175;SHT30;59417;44.788;10.334;2022-10-14T00:14:12;16.45;72.68
28175;SHT30;59417;44.788;10.334;2022-10-14T00:16:39;16.24;72.98
28175;SHT30;59417;44.788;10.334;2022-10-14T00:19:07;15.98;73.90
28175;SHT30;59417;44.788;10.334;2022-10-14T00:21:33;15.91;74.22
28175;SHT30;59417;44.788;10.334;2022-10-14T00:23:59;15.87;74.21
28175;SHT30;59417;44.788;10.334;2022-10-14T00:26:26;15.87;74.34
28175;SHT30;59417;44.788;10.334;2022-10-14T00:28:52;15.86;74.34
28175;SHT30;59417;44.788;10.334;2022-10-14T00:31:19;15.84;74.35
28175;SHT30;59417;44.788;10.334;2022-10-14T00:33:46;15.82;74.67
28175;SHT30;59417;44.788;10.334;2022-10-14T00:36:12;15.87;74.42
28175;SHT30;59417;44.788;10.334;2022-10-14T00:38:38;15.80;74.90
28175;SHT30;59417;44.788;10.334;2022-10-14T00:41:04;15.79;75.19
28175;SHT30;59417;44.788;10.334;2022-10-14T00:43:47;15.86;74.84
28175;SHT30;59417;44.788;10.334;2022-10-14T00:46:14;15.98;74.30
28175;SHT30;59417;44.788;10.334;2022-10-14T00:48:39;16.00;74.46
28175;SHT30;59417;44.788;10.334;2022-10-14T00:51:05;15.93;74.40
28175;SHT30;59417;44.788;10.334;2022-10-14T00:53:31;15.89;74.79
28175;SHT30;59417;44.788;10.334;2022-10-14T00:55:56;15.86;74.44
28175;SHT30;59417;44.788;10.334;2022-10-14T00:58:22;15.89;74.45
28175;SHT30;59417;44.788;10.334;2022-10-14T01:00:47;15.93;74.25
28175;SHT30;59417;44.788;10.334;2022-10-14T01:03:17;15.93;74.48
28175;SHT30;59417;44.788;10.334;2022-10-14T01:05:47;15.93;74.43
28175;SHT30;59417;44.788;10.334;2022-10-14T01:08:15;16.00;74.24
28175;SHT30;59417;44.788;10.334;2022-10-14T01:13:12;16.03;73.94
28175;SHT30;59417;44.788;10.334;2022-10-14T01:25:42;16.35;72.46
28175;SHT30;59417;44.788;10.334;2022-10-14T01:30:40;16.25;72.65
28175;SHT30;59417;44.788;10.334;2022-10-14T01:33:09;16.21;72.82
28175;SHT30;59417;44.788;10.334;2022-10-14T01:38:05;16.14;72.96
28175;SHT30;59417;44.788;10.334;2022-10-14T01:43:18;16.04;73.19
28175;SHT30;59417;44.788;10.334;2022-10-14T01:45:46;16.12;72.51
28175;SHT30;59417;44.788;10.334;2022-10-14T01:48:16;16.09;72.40
28175;SHT30;59417;44.788;10.334;2022-10-14T01:50:43;16.07;72.26
28175;SHT30;59417;44.788;10.334;2022-10-14T01:53:11;16.03;72.34
28175;SHT30;59417;44.788;10.334;2022-10-14T01:55:40;16.03;72.35
28175;SHT30;59417;44.788;10.334;2022-10-14T01:58:07;15.90;72.84
28175;SHT30;59417;44.788;10.334;2022-10-14T02:00:34;15.91;72.89
28175;SHT30;59417;44.788;10.334;2022-10-14T02:03:00;15.96;72.75
28175;SHT30;59417;44.788;10.334;2022-10-14T02:07:54;15.98;72.98
28175;SHT30;59417;44.788;10.334;2022-10-14T02:13:08;15.94;73.19
28175;SHT30;59417;44.788;10.334;2022-10-14T02:15:48;15.98;73.17
28175;SHT30;59417;44.788;10.334;2022-10-14T02:18:21;15.96;73.24
28175;SHT30;59417;44.788;10.334;2022-10-14T02:23:36;15.84;73.73
28175;SHT30;59417;44.788;10.334;2022-10-14T02:26:03;15.90;73.33
28175;SHT30;59417;44.788;10.334;2022-10-14T02:28:29;15.90;73.37
28175;SHT30;59417;44.788;10.334;2022-10-14T02:30:56;15.91;73.34
28175;SHT30;59417;44.788;10.334;2022-10-14T02:33:24;15.82;73.81
28175;SHT30;59417;44.788;10.334;2022-10-14T02:35:50;15.67;74.07
28175;SHT30;59417;44.788;10.334;2022-10-14T02:38:16;15.67;73.78
28175;SHT30;59417;44.788;10.334;2022-10-14T02:40:44;15.72;73.42
28175;SHT30;59417;44.788;10.334;2022-10-14T02:43:11;15.67;73.90
28175;SHT30;59417;44.788;10.334;2022-10-14T02:45:37;15.66;74.06
28175;SHT30;59417;44.788;10.334;2022-10-14T02:48:03;15.66;73.89
28175;SHT30;59417;44.788;10.334;2022-10-14T02:50:29;15.63;73.89
28175;SHT30;59417;44.788;10.334;2022-10-14T02:52:54;15.55;74.47
28175;SHT30;59417;44.788;10.334;2022-10-14T02:55:20;15.55;74.31
28175;SHT30;59417;44.788;10.334;2022-10-14T02:57:46;15.67;73.98
28175;SHT30;59417;44.788;10.334;2022-10-14T03:00:11;15.69;73.86
28175;SHT30;59417;44.788;10.334;2022-10-14T03:02:37;15.67;74.08
28175;SHT30;59417;44.788;10.334;2022-10-14T03:05:03;15.65;73.96
28175;SHT30;59417;44.788;10.334;2022-10-14T03:07:29;15.61;74.26
28175;SHT30;59417;44.788;10.334;2022-10-14T03:09:58;15.53;74.24
28175;SHT30;59417;44.788;10.334;2022-10-14T03:12:24;15.56;74.22
28175;SHT30;59417;44.788;10.334;2022-10-14T03:14:52;15.58;74.08
28175;SHT30;59417;44.788;10.334;2022-10-14T03:17:18;15.55;74.21
28175;SHT30;59417;44.788;10.334;2022-10-14T03:19:44;15.53;74.70
28175;SHT30;59417;44.788;10.334;2022-10-14T03:22:12;15.48;74.69
28175;SHT30;59417;44.788;10.334;2022-10-14T03:24:39;15.46;75.04
28175;SHT30;59417;44.788;10.334;2022-10-14T03:27:30;15.46;74.96
28175;SHT30;59417;44.788;10.334;2022-10-14T03:30:01;15.43;74.92
28175;SHT30;59417;44.788;10.334;2022-10-14T03:32:26;15.49;74.74
28175;SHT30;59417;44.788;10.334;2022-10-14T03:35:10;15.48;74.68
28175;SHT30;59417;44.788;10.334;2022-10-14T03:37:37;15.59;73.92
28175;SHT30;59417;44.788;10.334;2022-10-14T03:40:03;15.52;74.47
28175;SHT30;59417;44.788;10.334;2022-10-14T03:42:31;15.61;73.85
28175;SHT30;59417;44.788;10.334;2022-10-14T03:44:57;15.55;74.39
28175;SHT30;59417;44.788;10.334;2022-10-14T03:47:26;15.58;74.37
28175;SHT30;59417;44.788;10.334;2022-10-14T03:49:51;15.51;74.55
28175;SHT30;59417;44.788;10.334;2022-10-14T03:52:24;15.52;74.62
28175;SHT30;59417;44.788;10.334;2022-10-14T03:55:05;15.53;74.37
28175;SHT30;59417;44.788;10.334;2022-10-14T03:57:31;15.51;74.20
28175;SHT30;59417;44.788;10.334;2022-10-14T03:59:58;15.42;74.45
28175;SHT30;59417;44.788;10.334;2022-10-14T04:02:38;15.34;74.65
28175;SHT30;59417;44.788;10.334;2022-10-14T04:05:06;15.34;74.68
28175;SHT30;59417;44.788;10.334;2022-10-14T04:07:32;15.39;74.36
28175;SHT30;59417;44.788;10.334;2022-10-14T04:09:58;15.35;74.91
28175;SHT30;59417;44.788;10.334;2022-10-14T04:12:24;15.31;74.98
28175;SHT30;59417;44.788;10.334;2022-10-14T04:14:58;15.31;74.84
28175;SHT30;59417;44.788;10.334;2022-10-14T04:17:24;15.27;74.87
28175;SHT30;59417;44.788;10.334;2022-10-14T04:19:51;15.27;74.90
28175;SHT30;59417;44.788;10.334;2022-10-14T04:22:17;15.28;74.93
28175;SHT30;59417;44.788;10.334;2022-10-14T04:24:47;15.27;74.85
28175;SHT30;59417;44.788;10.334;2022-10-14T04:27:12;15.32;74.46
28175;SHT30;59417;44.788;10.334;2022-10-14T04:29:46;15.39;74.27
28175;SHT30;59417;44.788;10.334;2022-10-14T04:32:22;15.36;74.15
28175;SHT30;59417;44.788;10.334;2022-10-14T04:34:48;15.38;74.19
28175;SHT30;59417;44.788;10.334;2022-10-14T04:37:17;15.36;74.26
28175;SHT30;59417;44.788;10.334;2022-10-14T04:40:02;15.22;74.76
28175;SHT30;59417;44.788;10.334;2022-10-14T04:42:29;15.21;74.65
28175;SHT30;59417;44.788;10.334;2022-10-14T04:44:59;15.25;74.41
28175;SHT30;59417;44.788;10.334;2022-10-14T04:47:38;15.31;74.39
28175;SHT30;59417;44.788;10.334;2022-10-14T04:50:05;15.31;74.41
28175;SHT30;59417;44.788;10.334;2022-10-14T04:52:31;15.14;75.03
28175;SHT30;59417;44.788;10.334;2022-10-14T04:55:03;15.05;75.11
28175;SHT30;59417;44.788;10.334;2022-10-14T04:57:35;14.95;75.65
28175;SHT30;59417;44.788;10.334;2022-10-14T05:00:03;15.00;75.55
28175;SHT30;59417;44.788;10.334;2022-10-14T05:02:52;15.01;75.31
28175;SHT30;59417;44.788;10.334;2022-10-14T05:05:20;15.08;74.95
28175;SHT30;59417;44.788;10.334;2022-10-14T05:07:50;15.18;74.78
28175;SHT30;59417;44.788;10.334;2022-10-14T05:10:27;15.18;74.85
28175;SHT30;59417;44.788;10.334;2022-10-14T05:12:54;15.16;74.69
28175;SHT30;59417;44.788;10.334;2022-10-14T05:15:19;15.11;74.62
28175;SHT30;59417;44.788;10.334;2022-10-14T05:17:57;14.95;75.39
28175;SHT30;59417;44.788;10.334;2022-10-14T05:20:33;14.81;75.92
28175;SHT30;59417;44.788;10.334;2022-10-14T05:23:00;14.77;76.27
28175;SHT30;59417;44.788;10.334;2022-10-14T05:25:26;14.88;75.93
28175;SHT30;59417;44.788;10.334;2022-10-14T05:27:53;14.92;75.70
28175;SHT30;59417;44.788;10.334;2022-10-14T05:30:19;15.02;75.28
28175;SHT30;59417;44.788;10.334;2022-10-14T05:32:49;15.05;75.04
28175;SHT30;59417;44.788;10.334;2022-10-14T05:35:16;15.01;75.31
28175;SHT30;59417;44.788;10.334;2022-10-14T05:37:43;14.98;75.56
28175;SHT30;59417;44.788;10.334;2022-10-14T05:40:09;14.97;75.54
28175;SHT30;59417;44.788;10.334;2022-10-14T05:42:35;14.97;75.86
28175;SHT30;59417;44.788;10.334;2022-10-14T05:45:01;14.90;76.10
28175;SHT30;59417;44.788;10.334;2022-10-14T05:47:28;14.87;76.13
28175;SHT30;59417;44.788;10.334;2022-10-14T05:50:04;14.98;75.86
28175;SHT30;59417;44.788;10.334;2022-10-14T05:52:31;15.05;75.76
28175;SHT30;59417;44.788;10.334;2022-10-14T05:54:59;15.16;75.48
28175;SHT30;59417;44.788;10.334;2022-10-14T05:57:26;15.21;75.16
28175;SHT30;59417;44.788;10.334;2022-10-14T05:59:52;15.14;75.31
28175;SHT30;59417;44.788;10.334;2022-10-14T06:02:21;15.05;75.62
28175;SHT30;59417;44.788;10.334;2022-10-14T06:04:47;15.00;76.07
28175;SHT30;59417;44.788;10.334;2022-10-14T06:07:12;15.04;75.86
28175;SHT30;59417;44.788;10.334;2022-10-14T06:09:39;14.97;76.23
28175;SHT30;59417;44.788;10.334;2022-10-14T06:12:05;14.98;76.88
28175;SHT30;59417;44.788;10.334;2022-10-14T06:14:31;14.98;75.74
28175;SHT30;59417;44.788;10.334;2022-10-14T06:16:57;15.00;75.83
28175;SHT30;59417;44.788;10.334;2022-10-14T06:19:23;15.12;75.25
28175;SHT30;59417;44.788;10.334;2022-10-14T06:21:48;15.29;74.68
28175;SHT30;59417;44.788;10.334;2022-10-14T06:24:14;15.28;74.92
28175;SHT30;59417;44.788;10.334;2022-10-14T06:26:39;15.31;74.71
28175;SHT30;59417;44.788;10.334;2022-10-14T06:29:05;15.32;74.55
28175;SHT30;59417;44.788;10.334;2022-10-14T06:31:31;15.34;74.92
28175;SHT30;59417;44.788;10.334;2022-10-14T06:33:57;15.45;74.16
28175;SHT30;59417;44.788;10.334;2022-10-14T06:36:22;15.48;74.78
28175;SHT30;59417;44.788;10.334;2022-10-14T06:38:48;15.55;74.12
28175;SHT30;59417;44.788;10.334;2022-10-14T06:41:13;15.58;73.84
28175;SHT30;59417;44.788;10.334;2022-10-14T06:43:39;15.55;74.48
28175;SHT30;59417;44.788;10.334;2022-10-14T06:46:05;15.65;74.36
28175;SHT30;59417;44.788;10.334;2022-10-14T06:48:31;15.67;74.28
28175;SHT30;59417;44.788;10.334;2022-10-14T06:51:00;15.61;74.92
28175;SHT30;59417;44.788;10.334;2022-10-14T06:53:26;15.56;74.77
28175;SHT30;59417;44.788;10.334;2022-10-14T06:56:02;15.73;73.91
28175;SHT30;59417;44.788;10.334;2022-10-14T06:58:28;15.77;74.03
28175;SHT30;59417;44.788;10.334;2022-10-14T07:00:54;15.89;73.59
28175;SHT30;59417;44.788;10.334;2022-10-14T07:03:19;15.93;73.81
28175;SHT30;59417;44.788;10.334;2022-10-14T07:05:45;16.06;73.16
28175;SHT30;59417;44.788;10.334;2022-10-14T07:08:11;16.14;73.35
28175;SHT30;59417;44.788;10.334;2022-10-14T07:10:37;16.31;73.57
28175;SHT30;59417;44.788;10.334;2022-10-14T07:13:02;16.28;73.02
28175;SHT30;59417;44.788;10.334;2022-10-14T07:15:28;16.33;74.20
28175;SHT30;59417;44.788;10.334;2022-10-14T07:17:53;16.40;74.53
28175;SHT30;59417;44.788;10.334;2022-10-14T07:20:19;16.61;73.59
28175;SHT30;59417;44.788;10.334;2022-10-14T07:22:44;16.41;73.62
28175;SHT30;59417;44.788;10.334;2022-10-14T07:25:10;16.41;74.32
28175;SHT30;59417;44.788;10.334;2022-10-14T07:27:37;16.41;73.86
28175;SHT30;59417;44.788;10.334;2022-10-14T07:30:03;16.42;73.99
28175;SHT30;59417;44.788;10.334;2022-10-14T07:32:29;16.45;74.24
28175;SHT30;59417;44.788;10.334;2022-10-14T07:34:54;16.55;73.43
28175;SHT30;59417;44.788;10.334;2022-10-14T07:37:20;16.48;73.93
28175;SHT30;59417;44.788;10.334;2022-10-14T07:39:46;16.52;73.75
28175;SHT30;59417;44.788;10.334;2022-10-14T07:42:11;16.55;73.90
28175;SHT30;59417;44.788;10.334;2022-10-14T07:44:37;16.59;74.16
28175;SHT30;59417;44.788;10.334;2022-10-14T07:47:04;16.71;73.64
28175;SHT30;59417;44.788;10.334;2022-10-14T07:49:30;16.71;73.88
28175;SHT30;59417;44.788;10.334;2022-10-14T07:51:55;16.84;73.50
28175;SHT30;59417;44.788;10.334;2022-10-14T07:54:22;16.88;73.52
28175;SHT30;59417;44.788;10.334;2022-10-14T07:56:48;16.95;74.64
28175;SHT30;59417;44.788;10.334;2022-10-14T07:59:14;16.99;73.22
28175;SHT30;59417;44.788;10.334;2022-10-14T08:01:40;16.94;73.22
28175;SHT30;59417;44.788;10.334;2022-10-14T08:04:07;16.99;73.09
28175;SHT30;59417;44.788;10.334;2022-10-14T08:06:32;16.92;73.66
28175;SHT30;59417;44.788;10.334;2022-10-14T08:08:58;16.88;73.01
28175;SHT30;59417;44.788;10.334;2022-10-14T08:11:27;16.86;73.96
28175;SHT30;59417;44.788;10.334;2022-10-14T08:13:56;16.95;73.95
28175;SHT30;59417;44.788;10.334;2022-10-14T08:16:27;16.85;73.23
28175;SHT30;59417;44.788;10.334;2022-10-14T08:18:56;16.86;74.17
28175;SHT30;59417;44.788;10.334;2022-10-14T08:21:26;16.91;72.87
28175;SHT30;59417;44.788;10.334;2022-10-14T08:23:58;16.99;72.67
28175;SHT30;59417;44.788;10.334;2022-10-14T08:26:27;16.91;72.86
28175;SHT30;59417;44.788;10.334;2022-10-14T08:28:54;16.82;73.25
28175;SHT30;59417;44.788;10.334;2022-10-14T08:31:20;16.85;73.24
28175;SHT30;59417;44.788;10.334;2022-10-14T08:33:50;16.92;72.93
28175;SHT30;59417;44.788;10.334;2022-10-14T08:36:16;17.08;72.60
28175;SHT30;59417;44.788;10.334;2022-10-14T08:38:43;17.08;71.98
28175;SHT30;59417;44.788;10.334;2022-10-14T08:43:41;17.40;72.27
28175;SHT30;59417;44.788;10.334;2022-10-14T08:46:52;17.49;70.69
28175;SHT30;59417;44.788;10.334;2022-10-14T08:49:10;17.50;71.00
28175;SHT30;59417;44.788;10.334;2022-10-14T08:51:41;17.63;71.02
28175;SHT30;59417;44.788;10.334;2022-10-14T08:54:10;17.57;70.64
28175;SHT30;59417;44.788;10.334;2022-10-14T08:56:40;17.66;70.73
28175;SHT30;59417;44.788;10.334;2022-10-14T08:59:11;17.81;70.76
28175;SHT30;59417;44.788;10.334;2022-10-14T09:01:47;17.87;70.69
28175;SHT30;59417;44.788;10.334;2022-10-14T09:04:13;18.02;70.41
28175;SHT30;59417;44.788;10.334;2022-10-14T09:06:43;18.15;69.70
28175;SHT30;59417;44.788;10.334;2022-10-14T09:11:47;18.09;69.40
28175;SHT30;59417;44.788;10.334;2022-10-14T09:14:18;18.19;70.30
28175;SHT30;59417;44.788;10.334;2022-10-14T09:16:48;18.19;69.47
28175;SHT30;59417;44.788;10.334;2022-10-14T09:19:36;18.25;69.86
28175;SHT30;59417;44.788;10.334;2022-10-14T09:22:12;18.29;69.50
28175;SHT30;59417;44.788;10.334;2022-10-14T09:24:38;18.32;70.22
28175;SHT30;59417;44.788;10.334;2022-10-14T09:27:07;18.29;69.13
28175;SHT30;59417;44.788;10.334;2022-10-14T09:29:45;18.32;69.44
28175;SHT30;59417;44.788;10.334;2022-10-14T09:32:12;18.32;68.83
28175;SHT30;59417;44.788;10.334;2022-10-14T09:34:43;18.46;69.10
28175;SHT30;59417;44.788;10.334;2022-10-14T09:37:15;18.56;69.44
28175;SHT30;59417;44.788;10.334;2022-10-14T09:39:43;18.57;69.38
28175;SHT30;59417;44.788;10.334;2022-10-14T09:42:14;18.70;69.23
28175;SHT30;59417;44.788;10.334;2022-10-14T09:44:42;18.66;69.00
28175;SHT30;59417;44.788;10.334;2022-10-14T09:47:09;18.73;69.72
28175;SHT30;59417;44.788;10.334;2022-10-14T09:49:40;18.90;68.88
28175;SHT30;59417;44.788;10.334;2022-10-14T09:52:07;18.96;68.72
28175;SHT30;59417;44.788;10.334;2022-10-14T09:54:44;19.10;68.73
28175;SHT30;59417;44.788;10.334;2022-10-14T09:57:16;19.08;67.71
28175;SHT30;59417;44.788;10.334;2022-10-14T09:59:49;19.06;67.62
28175;SHT30;59417;44.788;10.334;2022-10-14T10:02:20;19.14;67.73
28175;SHT30;59417;44.788;10.334;2022-10-14T10:04:46;19.14;67.60
28175;SHT30;59417;44.788;10.334;2022-10-14T10:12:50;19.34;68.39
28175;SHT30;59417;44.788;10.334;2022-10-14T10:15:17;19.54;67.56
28175;SHT30;59417;44.788;10.334;2022-10-14T10:17:43;19.48;67.10
28175;SHT30;59417;44.788;10.334;2022-10-14T10:22:39;19.47;67.07
28175;SHT30;59417;44.788;10.334;2022-10-14T10:27:51;19.65;67.56
28175;SHT30;59417;44.788;10.334;2022-10-14T10:37:56;19.86;66.14
28175;SHT30;59417;44.788;10.334;2022-10-14T10:45:48;19.78;65.72
28175;SHT30;59417;44.788;10.334;2022-10-14T10:51:13;19.95;66.45
28175;SHT30;59417;44.788;10.334;2022-10-14T11:20:12;21.77;59.08
28175;SHT30;59417;44.788;10.334;2022-10-14T11:25:17;22.11;58.38
28175;SHT30;59417;44.788;10.334;2022-10-14T11:35:50;21.73;59.53
28175;SHT30;59417;44.788;10.334;2022-10-14T11:38:28;21.81;60.08
28175;SHT30;59417;44.788;10.334;2022-10-14T11:46:05;21.77;59.28
28175;SHT30;59417;44.788;10.334;2022-10-14T11:48:43;21.83;59.59
28175;SHT30;59417;44.788;10.334;2022-10-14T11:51:11;21.97;59.31
28175;SHT30;59417;44.788;10.334;2022-10-14T11:53:57;21.86;59.60
28175;SHT30;59417;44.788;10.334;2022-10-14T11:58:50;22.10;57.05
28175;SHT30;59417;44.788;10.334;2022-10-14T12:01:18;22.11;60.10
28175;SHT30;59417;44.788;10.334;2022-10-14T12:03:51;21.96;57.48
28175;SHT30;59417;44.788;10.334;2022-10-14T12:06:24;21.94;57.42
28175;SHT30;59417;44.788;10.334;2022-10-14T12:09:41;21.90;57.57
28175;SHT30;59417;44.788;10.334;2022-10-14T12:12:08;21.84;58.46
28175;SHT30;59417;44.788;10.334;2022-10-14T12:14:55;21.86;58.71
28175;SHT30;59417;44.788;10.334;2022-10-14T12:17:56;21.93;58.81
28175;SHT30;59417;44.788;10.334;2022-10-14T12:20:16;22.06;57.91
28175;SHT30;59417;44.788;10.334;2022-10-14T12:22:43;22.17;56.25
28175;SHT30;59417;44.788;10.334;2022-10-14T12:25:12;22.28;56.36
28175;SHT30;59417;44.788;10.334;2022-10-14T12:27:38;22.31;56.35
28175;SHT30;59417;44.788;10.334;2022-10-14T12:30:17;22.21;56.30
28175;SHT30;59417;44.788;10.334;2022-10-14T12:33:06;22.14;57.44
28175;SHT30;59417;44.788;10.334;2022-10-14T12:38:23;22.18;56.43
28175;SHT30;59417;44.788;10.334;2022-10-14T12:40:49;22.00;55.53
28175;SHT30;59417;44.788;10.334;2022-10-14T12:45:47;21.92;56.08
28175;SHT30;59417;44.788;10.334;2022-10-14T12:48:14;21.77;57.29
28175;SHT30;59417;44.788;10.334;2022-10-14T12:50:40;21.76;58.89
28175;SHT30;59417;44.788;10.334;2022-10-14T12:53:19;21.83;58.48
28175;SHT30;59417;44.788;10.334;2022-10-14T12:55:50;21.89;57.72
28175;SHT30;59417;44.788;10.334;2022-10-14T13:00:55;22.00;58.58
28175;SHT30;59417;44.788;10.334;2022-10-14T13:03:23;21.97;58.80
28175;SHT30;59417;44.788;10.334;2022-10-14T13:05:50;21.98;58.80
28175;SHT30;59417;44.788;10.334;2022-10-14T13:11:04;22.22;57.63
28175;SHT30;59417;44.788;10.334;2022-10-14T13:18:49;22.47;56.16
28175;SHT30;59417;44.788;10.334;2022-10-14T13:23:49;22.37;56.31
28175;SHT30;59417;44.788;10.334;2022-10-14T13:26:18;22.51;57.24
28175;SHT30;59417;44.788;10.334;2022-10-14T13:31:29;22.32;56.79
28175;SHT30;59417;44.788;10.334;2022-10-14T13:36:52;22.29;56.77
28175;SHT30;59417;44.788;10.334;2022-10-14T13:39:21;22.25;57.41
28175;SHT30;59417;44.788;10.334;2022-10-14T13:41:48;22.17;57.56
28175;SHT30;59417;44.788;10.334;2022-10-14T13:44:14;22.21;57.83
28175;SHT30;59417;44.788;10.334;2022-10-14T13:46:46;22.25;58.12
28175;SHT30;59417;44.788;10.334;2022-10-14T13:49:13;22.29;55.74
28175;SHT30;59417;44.788;10.334;2022-10-14T13:56:33;22.16;58.44
28175;SHT30;59417;44.788;10.334;2022-10-14T13:58:59;22.16;57.62
28175;SHT30;59417;44.788;10.334;2022-10-14T14:01:29;22.07;57.38
28175;SHT30;59417;44.788;10.334;2022-10-14T14:03:57;21.87;57.96
28175;SHT30;59417;44.788;10.334;2022-10-14T14:06:23;21.87;58.11
28175;SHT30;59417;44.788;10.334;2022-10-14T14:08:50;21.87;57.62
28175;SHT30;59417;44.788;10.334;2022-10-14T14:11:21;21.96;57.94
28175;SHT30;59417;44.788;10.334;2022-10-14T14:13:52;21.80;58.76
28175;SHT30;59417;44.788;10.334;2022-10-14T14:16:22;21.78;58.88
28175;SHT30;59417;44.788;10.334;2022-10-14T14:18:49;21.77;59.41
28175;SHT30;59417;44.788;10.334;2022-10-14T14:21:18;21.86;59.87
28175;SHT30;59417;44.788;10.334;2022-10-14T14:23:48;21.89;59.46
28175;SHT30;59417;44.788;10.334;2022-10-14T14:26:14;21.93;58.17
28175;SHT30;59417;44.788;10.334;2022-10-14T14:28:40;21.87;58.84
28175;SHT30;59417;44.788;10.334;2022-10-14T14:31:10;21.87;58.63
28175;SHT30;59417;44.788;10.334;2022-10-14T14:33:39;21.93;58.83
28175;SHT30;59417;44.788;10.334;2022-10-14T14:36:05;21.89;59.32
28175;SHT30;59417;44.788;10.334;2022-10-14T14:38:35;21.86;59.74
28175;SHT30;59417;44.788;10.334;2022-10-14T14:43:42;21.78;59.80
28175;SHT30;59417;44.788;10.334;2022-10-14T14:46:10;21.67;59.90
28175;SHT30;59417;44.788;10.334;2022-10-14T14:48:41;21.65;60.40
28175;SHT30;59417;44.788;10.334;2022-10-14T14:51:10;21.62;60.79
28175;SHT30;59417;44.788;10.334;2022-10-14T14:53:39;21.63;61.36
28175;SHT30;59417;44.788;10.334;2022-10-14T14:56:05;21.69;60.67
28175;SHT30;59417;44.788;10.334;2022-10-14T14:58:45;21.66;60.44
28175;SHT30;59417;44.788;10.334;2022-10-14T15:06:15;21.76;58.12
28175;SHT30;59417;44.788;10.334;2022-10-14T15:08:42;21.70;57.91
28175;SHT30;59417;44.788;10.334;2022-10-14T15:11:12;21.65;60.17
28175;SHT30;59417;44.788;10.334;2022-10-14T15:16:03;21.53;58.70
28175;SHT30;59417;44.788;10.334;2022-10-14T15:18:29;21.47;58.86
28175;SHT30;59417;44.788;10.334;2022-10-14T15:26:33;21.35;62.07
28175;SHT30;59417;44.788;10.334;2022-10-14T15:29:18;21.25;61.47
28175;SHT30;59417;44.788;10.334;2022-10-14T15:31:45;21.19;61.47
28175;SHT30;59417;44.788;10.334;2022-10-14T15:34:15;21.19;60.29
28175;SHT30;59417;44.788;10.334;2022-10-14T15:36:41;21.16;60.91
28175;SHT30;59417;44.788;10.334;2022-10-14T15:39:09;21.15;62.03
28175;SHT30;59417;44.788;10.334;2022-10-14T15:41:38;21.15;62.55
28175;SHT30;59417;44.788;10.334;2022-10-14T15:44:03;21.09;63.12
28175;SHT30;59417;44.788;10.334;2022-10-14T15:46:29;21.04;63.57
28175;SHT30;59417;44.788;10.334;2022-10-14T15:49:13;20.98;64.22
28175;SHT30;59417;44.788;10.334;2022-10-14T15:51:39;20.96;64.74
28175;SHT30;59417;44.788;10.334;2022-10-14T15:54:08;20.91;64.06
28175;SHT30;59417;44.788;10.334;2022-10-14T15:56:33;20.84;64.81
28175;SHT30;59417;44.788;10.334;2022-10-14T15:58:59;20.75;65.84
28175;SHT30;59417;44.788;10.334;2022-10-14T16:01:25;20.70;66.79
28175;SHT30;59417;44.788;10.334;2022-10-14T16:03:50;20.65;67.04
28175;SHT30;59417;44.788;10.334;2022-10-14T16:06:19;20.60;66.62
28175;SHT30;59417;44.788;10.334;2022-10-14T16:08:46;20.55;65.28
28175;SHT30;59417;44.788;10.334;2022-10-14T16:11:25;20.58;64.53
28175;SHT30;59417;44.788;10.334;2022-10-14T16:13:50;20.60;65.86
28175;SHT30;59417;44.788;10.334;2022-10-14T16:16:18;20.61;68.07
28175;SHT30;59417;44.788;10.334;2022-10-14T16:18:45;20.45;68.88
28175;SHT30;59417;44.788;10.334;2022-10-14T16:21:12;20.37;69.02
28175;SHT30;59417;44.788;10.334;2022-10-14T16:23:39;20.33;68.19
28175;SHT30;59417;44.788;10.334;2022-10-14T16:26:04;20.29;68.37
28175;SHT30;59417;44.788;10.334;2022-10-14T16:28:30;20.24;68.48
28175;SHT30;59417;44.788;10.334;2022-10-14T16:30:56;20.14;68.74
28175;SHT30;59417;44.788;10.334;2022-10-14T16:33:23;20.12;68.24
28175;SHT30;59417;44.788;10.334;2022-10-14T16:35:49;20.10;67.99
28175;SHT30;59417;44.788;10.334;2022-10-14T16:38:15;20.00;68.17
28175;SHT30;59417;44.788;10.334;2022-10-14T16:40:41;19.92;67.92
28175;SHT30;59417;44.788;10.334;2022-10-14T16:43:06;19.85;68.56
28175;SHT30;59417;44.788;10.334;2022-10-14T16:45:32;19.82;69.43
28175;SHT30;59417;44.788;10.334;2022-10-14T16:47:57;19.75;68.54
28175;SHT30;59417;44.788;10.334;2022-10-14T16:50:23;19.75;68.64
28175;SHT30;59417;44.788;10.334;2022-10-14T16:52:48;19.73;68.53
28175;SHT30;59417;44.788;10.334;2022-10-14T16:55:32;19.57;68.28
28175;SHT30;59417;44.788;10.334;2022-10-14T16:57:58;19.51;68.61
28175;SHT30;59417;44.788;10.334;2022-10-14T17:00:24;19.47;68.24
28175;SHT30;59417;44.788;10.334;2022-10-14T17:02:49;19.48;68.65
28175;SHT30;59417;44.788;10.334;2022-10-14T17:05:15;19.39;69.25
28175;SHT30;59417;44.788;10.334;2022-10-14T17:07:40;19.38;70.26
28175;SHT30;59417;44.788;10.334;2022-10-14T17:10:06;19.38;70.23
28175;SHT30;59417;44.788;10.334;2022-10-14T17:12:32;19.31;70.51
28175;SHT30;59417;44.788;10.334;2022-10-14T17:14:57;19.34;70.26
28175;SHT30;59417;44.788;10.334;2022-10-14T17:17:23;19.32;70.33
28175;SHT30;59417;44.788;10.334;2022-10-14T17:19:49;19.27;70.47
28175;SHT30;59417;44.788;10.334;2022-10-14T17:22:19;19.28;70.35
28175;SHT30;59417;44.788;10.334;2022-10-14T17:24:45;19.25;70.30
28175;SHT30;59417;44.788;10.334;2022-10-14T17:27:11;19.27;69.94
28175;SHT30;59417;44.788;10.334;2022-10-14T17:29:37;19.21;69.65
28175;SHT30;59417;44.788;10.334;2022-10-14T17:32:02;19.11;70.49
28175;SHT30;59417;44.788;10.334;2022-10-14T17:37:11;19.04;70.47
28175;SHT30;59417;44.788;10.334;2022-10-14T17:39:46;18.97;70.56
28175;SHT30;59417;44.788;10.334;2022-10-14T17:42:11;18.91;71.30
28175;SHT30;59417;44.788;10.334;2022-10-14T17:44:37;18.88;71.34
28175;SHT30;59417;44.788;10.334;2022-10-14T17:47:03;18.94;71.28
28175;SHT30;59417;44.788;10.334;2022-10-14T17:49:37;18.97;70.90
28175;SHT30;59417;44.788;10.334;2022-10-14T17:52:02;19.01;71.89
28175;SHT30;59417;44.788;10.334;2022-10-14T17:54:30;18.91;72.59
28175;SHT30;59417;44.788;10.334;2022-10-14T18:11:09;18.70;72.19